createdAt,value
2022-12-13T00:01:48.019Z,18.58
2022-12-13T00:04:16.333Z,22.15
2022-12-13T00:06:44.867Z,22.63
2022-12-13T00:09:14.984Z,19.70
2022-12-13T00:11:42.988Z,20.77
2022-12-13T00:14:11.609Z,21.20
2022-12-13T00:16:39.491Z,20.42
2022-12-13T00:19:08.826Z,19.30
2022-12-13T00:21:36.738Z,21.65
2022-12-13T00:24:07.655Z,25.35
2022-12-13T00:26:35.551Z,20.70
2022-12-13T00:29:05.788Z,22.08
2022-12-13T00:34:23.401Z,21.13
2022-12-13T00:36:51.215Z,25.08
2022-12-13T00:39:19.299Z,23.23
2022-12-13T00:41:47.920Z,21.77
2022-12-13T00:44:16.182Z,21.48
2022-12-13T00:46:44.073Z,21.27
2022-12-13T00:49:13.015Z,20.30
2022-12-13T00:51:42.357Z,20.55
2022-12-13T00:54:11.761Z,19.73
2022-12-13T00:56:39.673Z,22.23
2022-12-13T00:59:07.620Z,19.00
2022-12-13T01:01:37.656Z,19.50
2022-12-13T01:04:06.947Z,22.15
2022-12-13T01:06:38.005Z,21.85
2022-12-13T01:09:11.069Z,20.52
2022-12-13T01:14:06.725Z,18.77
2022-12-13T01:16:34.690Z,16.65
2022-12-13T01:19:02.565Z,22.85
2022-12-13T01:21:30.414Z,20.30
2022-12-13T01:24:03.346Z,21.00
2022-12-13T01:26:33.213Z,19.10
2022-12-13T01:29:02.325Z,17.00
2022-12-13T01:31:30.393Z,19.35
2022-12-13T01:33:58.864Z,19.20
2022-12-13T01:36:27.153Z,21.88
2022-12-13T01:38:58.118Z,23.98
2022-12-13T01:41:27.781Z,28.15
2022-12-13T01:44:01.112Z,23.60
2022-12-13T01:46:30.006Z,24.98
2022-12-13T01:49:19.323Z,22.95
2022-12-13T01:51:52.524Z,24.85
2022-12-13T01:54:33.226Z,24.83
2022-12-13T01:57:03.171Z,19.17
2022-12-13T01:59:33.535Z,25.35
2022-12-13T02:02:01.473Z,22.08
2022-12-13T02:04:33.119Z,20.27
2022-12-13T02:07:02.308Z,20.33
2022-12-13T02:09:30.428Z,24.65
2022-12-13T02:11:59.110Z,18.30
2022-12-13T02:14:26.957Z,21.02
2022-12-13T02:17:05.985Z,21.60
2022-12-13T02:20:21.367Z,21.75
2022-12-13T02:23:10.198Z,28.23
2022-12-13T02:26:08.186Z,24.52
2022-12-13T02:28:56.433Z,25.58
2022-12-13T02:31:33.819Z,23.40
2022-12-13T02:34:08.622Z,22.42
2022-12-13T02:36:43.270Z,27.52
2022-12-13T02:39:16.457Z,28.25
2022-12-13T02:42:02.977Z,25.20
2022-12-13T02:47:06.739Z,24.00
2022-12-13T02:49:46.943Z,26.90
2022-12-13T02:52:22.592Z,21.42
2022-12-13T02:54:50.782Z,31.48
2022-12-13T02:57:33.831Z,28.17
2022-12-13T03:00:04.347Z,27.63
2022-12-13T03:02:44.210Z,25.17
2022-12-13T03:05:42.353Z,30.42
2022-12-13T03:08:21.518Z,25.67
2022-12-13T03:11:00.150Z,26.92
2022-12-13T03:13:36.404Z,33.45
2022-12-13T03:16:11.402Z,27.23
2022-12-13T03:18:41.851Z,27.30
2022-12-13T03:21:10.688Z,26.08
2022-12-13T03:23:39.238Z,26.30
2022-12-13T03:26:11.323Z,23.25
2022-12-13T03:28:40.194Z,26.45
2022-12-13T03:31:08.852Z,22.65
2022-12-13T03:33:38.785Z,27.45
2022-12-13T03:36:09.636Z,25.63
2022-12-13T03:38:38.292Z,32.35
2022-12-13T03:41:09.988Z,28.58
2022-12-13T03:43:38.842Z,27.00
2022-12-13T03:46:07.382Z,24.58
2022-12-13T03:48:35.449Z,21.95
2022-12-13T03:51:03.629Z,24.65
2022-12-13T03:53:34.611Z,24.17
2022-12-13T03:56:04.854Z,25.17
2022-12-13T03:58:36.325Z,26.85
2022-12-13T04:01:07.464Z,25.80
2022-12-13T04:03:35.612Z,23.52
2022-12-13T04:06:03.532Z,23.80
2022-12-13T04:08:32.957Z,26.90
2022-12-13T04:11:20.911Z,21.92
2022-12-13T04:13:47.792Z,21.60
2022-12-13T04:16:15.718Z,23.48
2022-12-13T04:18:43.621Z,24.55
2022-12-13T04:21:11.497Z,24.02
2022-12-13T04:23:40.754Z,30.08
2022-12-13T04:26:08.601Z,25.00
2022-12-13T04:28:36.441Z,23.40
2022-12-13T04:31:04.520Z,23.35
2022-12-13T04:33:33.384Z,26.58
2022-12-13T04:36:01.479Z,24.50
2022-12-13T04:38:29.404Z,24.35
2022-12-13T04:41:07.785Z,24.60
2022-12-13T04:43:35.852Z,26.63
2022-12-13T04:46:03.787Z,25.90
2022-12-13T04:48:32.431Z,24.45
2022-12-13T04:51:00.977Z,22.10
2022-12-13T04:53:29.639Z,22.55
2022-12-13T04:55:57.624Z,22.50
2022-12-13T04:58:26.990Z,23.13
2022-12-13T05:00:54.967Z,21.77
2022-12-13T05:03:23.324Z,21.25
2022-12-13T05:05:51.432Z,26.15
2022-12-13T05:08:19.351Z,23.42
2022-12-13T05:10:47.498Z,25.20
2022-12-13T05:13:15.373Z,23.65
2022-12-13T05:15:44.578Z,24.23
2022-12-13T05:18:12.461Z,23.92
2022-12-13T05:20:40.859Z,20.52
2022-12-13T05:23:08.745Z,21.88
2022-12-13T05:25:37.541Z,23.25
2022-12-13T05:28:27.285Z,21.27
2022-12-13T05:30:56.581Z,22.63
2022-12-13T05:33:25.533Z,21.33
2022-12-13T05:35:59.010Z,23.65
2022-12-13T05:38:27.943Z,19.48
2022-12-13T05:40:55.846Z,21.98
2022-12-13T05:43:24.265Z,22.98
2022-12-13T05:46:13.399Z,19.55
2022-12-13T05:48:41.928Z,22.70
2022-12-13T05:51:11.988Z,20.58
2022-12-13T05:53:41.457Z,22.27
2022-12-13T05:56:10.835Z,19.65
2022-12-13T05:58:40.135Z,23.17
2022-12-13T06:01:10.224Z,22.58
2022-12-13T06:03:40.152Z,21.23
2022-12-13T06:06:10.493Z,21.55
2022-12-13T06:08:38.733Z,24.88
2022-12-13T06:11:10.613Z,24.88
2022-12-13T06:13:42.335Z,24.05
2022-12-13T06:16:23.380Z,25.48
2022-12-13T06:19:01.273Z,23.95
2022-12-13T06:21:44.073Z,27.42
2022-12-13T06:24:15.523Z,21.30
2022-12-13T06:26:45.232Z,25.45
2022-12-13T06:29:24.494Z,21.85
2022-12-13T06:32:02.358Z,25.88
2022-12-13T06:34:37.107Z,25.52
2022-12-13T06:37:06.982Z,23.63
2022-12-13T06:39:35.570Z,26.20
2022-12-13T06:42:06.023Z,23.75
2022-12-13T06:44:34.161Z,25.20
2022-12-13T06:47:11.402Z,26.63
2022-12-13T06:49:44.099Z,27.38
2022-12-13T06:52:15.067Z,28.08
2022-12-13T06:54:44.212Z,25.38
2022-12-13T06:57:12.914Z,30.60
2022-12-13T06:59:41.643Z,26.65
2022-12-13T07:02:24.560Z,32.47
2022-12-13T07:07:22.787Z,27.20
2022-12-13T07:09:50.726Z,29.23
2022-12-13T07:12:19.288Z,27.80
2022-12-13T07:14:47.171Z,32.15
2022-12-13T07:17:33.118Z,28.13
2022-12-13T07:20:07.762Z,25.50
2022-12-13T07:22:42.949Z,26.38
2022-12-13T07:25:28.561Z,33.17
2022-12-13T07:28:01.138Z,27.30
2022-12-13T07:32:58.387Z,28.45
2022-12-13T07:35:27.657Z,31.95
2022-12-13T07:37:55.517Z,31.42
2022-12-13T07:40:24.343Z,29.83
2022-12-13T07:42:52.696Z,29.83
2022-12-13T07:45:20.724Z,33.05
2022-12-13T07:47:48.603Z,29.50
2022-12-13T07:50:24.776Z,31.25
2022-12-13T07:52:54.823Z,27.33
2022-12-13T07:55:33.033Z,30.40
2022-12-13T07:58:07.635Z,32.92
2022-12-13T08:03:04.396Z,26.48
2022-12-13T08:05:38.919Z,28.80
2022-12-13T08:08:11.734Z,28.08
2022-12-13T08:10:39.855Z,28.08
2022-12-13T08:13:07.738Z,30.20
2022-12-13T08:15:35.656Z,33.03
2022-12-13T08:18:04.105Z,31.70
2022-12-13T08:21:51.746Z,29.38
2022-12-13T08:23:59.271Z,29.70
2022-12-13T08:26:27.095Z,30.67
2022-12-13T08:28:55.015Z,34.38
2022-12-13T08:31:23.011Z,32.45
2022-12-13T08:33:50.899Z,32.13
2022-12-13T08:36:19.387Z,30.67
2022-12-13T08:38:47.539Z,35.92
2022-12-13T08:41:16.910Z,35.97
2022-12-13T08:43:45.349Z,33.92
2022-12-13T08:46:13.384Z,33.40
2022-12-13T08:48:44.571Z,28.05
2022-12-13T08:51:24.668Z,37.33
2022-12-13T08:53:54.351Z,41.05
2022-12-13T08:56:43.668Z,37.63
2022-12-13T08:59:11.784Z,28.45
2022-12-13T09:01:44.185Z,36.93
2022-12-13T09:04:12.106Z,33.10
2022-12-13T09:06:42.590Z,35.33
2022-12-13T09:09:10.556Z,30.67
2022-12-13T09:11:41.840Z,32.00
2022-12-13T09:14:14.027Z,26.50
2022-12-13T09:16:42.400Z,32.42
2022-12-13T09:19:25.108Z,34.25
2022-12-13T09:22:02.331Z,26.88
2022-12-13T09:24:36.587Z,30.73
2022-12-13T09:27:09.389Z,33.00
2022-12-13T09:29:38.470Z,30.48
2022-12-13T09:32:07.005Z,29.63
2022-12-13T09:34:35.034Z,30.10
2022-12-13T09:37:02.973Z,27.35
2022-12-13T09:39:31.171Z,27.75
2022-12-13T09:42:01.184Z,32.17
2022-12-13T09:44:45.340Z,27.67
2022-12-13T09:47:23.087Z,31.42
2022-12-13T09:49:53.781Z,30.30
2022-12-13T09:52:24.728Z,26.77
2022-12-13T09:54:55.149Z,25.23
2022-12-13T09:57:32.003Z,26.15
2022-12-13T10:00:05.862Z,22.45
2022-12-13T10:02:46.272Z,27.05
2022-12-13T10:05:23.002Z,26.20
2022-12-13T10:07:54.188Z,21.55
2022-12-13T10:10:22.855Z,27.50
2022-12-13T10:12:57.198Z,21.95
2022-12-13T10:15:27.416Z,25.98
2022-12-13T10:17:56.110Z,24.75
2022-12-13T10:20:28.909Z,24.58
2022-12-13T10:23:31.244Z,28.88
2022-12-13T10:25:51.790Z,28.27
2022-12-13T10:28:27.406Z,24.70
2022-12-13T10:30:59.093Z,24.75
2022-12-13T10:33:30.516Z,22.77
2022-12-13T10:36:14.703Z,22.88
2022-12-13T10:38:45.504Z,28.00
2022-12-13T10:41:35.043Z,21.67
2022-12-13T10:44:15.852Z,28.20
2022-12-13T10:46:51.698Z,23.15
2022-12-13T10:49:22.690Z,28.63
2022-12-13T10:51:52.052Z,23.92
2022-12-13T10:54:27.470Z,24.70
2022-12-13T10:57:00.265Z,26.10
2022-12-13T10:59:33.918Z,25.70
2022-12-13T11:02:21.406Z,25.52
2022-12-13T11:04:49.659Z,27.20
2022-12-13T11:07:29.908Z,24.25
2022-12-13T11:10:04.974Z,28.63
2022-12-13T11:12:34.333Z,24.52
2022-12-13T11:15:07.443Z,23.17
2022-12-13T11:20:16.581Z,21.65
2022-12-13T11:22:45.284Z,22.00
2022-12-13T11:25:23.158Z,21.83
2022-12-13T11:28:05.677Z,26.88
2022-12-13T11:31:04.284Z,18.10
2022-12-13T11:33:48.926Z,28.15
2022-12-13T11:36:27.614Z,20.98
2022-12-13T11:39:07.358Z,19.65
2022-12-13T11:41:39.609Z,21.90
2022-12-13T11:44:16.308Z,21.30
2022-12-13T11:46:47.600Z,23.27
2022-12-13T11:49:19.026Z,18.75
2022-12-13T11:51:51.686Z,21.60
2022-12-13T11:54:28.169Z,21.75
2022-12-13T11:57:00.569Z,20.60
2022-12-13T11:59:40.303Z,19.88
2022-12-13T12:02:17.718Z,19.77
2022-12-13T12:04:54.925Z,20.73
2022-12-13T12:07:33.591Z,22.17
2022-12-13T12:10:16.116Z,18.52
2022-12-13T12:12:48.366Z,20.08
2022-12-13T12:15:26.974Z,20.47
2022-12-13T12:17:55.838Z,21.90
2022-12-13T12:20:40.579Z,18.90
2022-12-13T12:23:15.447Z,15.35
2022-12-13T12:25:52.368Z,18.15
2022-12-13T12:28:29.528Z,19.77
2022-12-13T12:31:09.946Z,19.05
2022-12-13T12:33:47.957Z,22.90
2022-12-13T12:36:35.261Z,20.65
2022-12-13T12:39:26.346Z,19.27
2022-12-13T12:42:14.587Z,20.48
2022-12-13T12:44:52.802Z,17.60
2022-12-13T12:48:39.837Z,17.23
2022-12-13T12:50:36.505Z,21.77
2022-12-13T12:53:17.976Z,21.40
2022-12-13T12:55:56.071Z,22.05
2022-12-13T12:58:30.161Z,20.13
2022-12-13T13:01:15.441Z,19.92
2022-12-13T13:03:44.597Z,23.10
2022-12-13T13:06:16.426Z,25.25
2022-12-13T13:08:55.369Z,18.73
2022-12-13T13:11:25.903Z,22.83
2022-12-13T13:14:08.229Z,21.85
2022-12-13T13:16:38.506Z,20.83
2022-12-13T13:19:07.169Z,28.02
2022-12-13T13:21:43.339Z,22.38
2022-12-13T13:24:24.987Z,20.95
2022-12-13T13:26:55.885Z,20.23
2022-12-13T13:29:38.310Z,21.23
2022-12-13T13:32:30.332Z,21.67
2022-12-13T13:35:53.498Z,18.65
2022-12-13T13:38:53.333Z,23.50
2022-12-13T13:41:56.601Z,22.70
2022-12-13T13:44:56.215Z,20.38
2022-12-13T13:47:41.999Z,20.52
2022-12-13T13:50:43.430Z,19.38
2022-12-13T13:53:36.088Z,20.90
2022-12-13T13:56:24.264Z,17.50
2022-12-13T13:59:30.630Z,20.23
2022-12-13T14:02:44.892Z,23.30
2022-12-13T14:06:03.836Z,16.80
2022-12-13T14:08:42.069Z,18.88
2022-12-13T14:11:46.333Z,21.20
2022-12-13T14:15:04.856Z,18.13
2022-12-13T14:18:21.493Z,21.40
2022-12-13T14:21:07.467Z,17.45
2022-12-13T14:23:48.748Z,18.83
2022-12-13T14:26:51.611Z,16.13
2022-12-13T14:29:24.667Z,21.93
2022-12-13T14:31:52.567Z,25.10
2022-12-13T14:34:25.370Z,19.63
2022-12-13T14:36:59.391Z,18.50
2022-12-13T14:39:29.463Z,21.40
2022-12-13T14:41:59.729Z,21.38
2022-12-13T14:44:30.432Z,20.70
2022-12-13T14:47:01.210Z,17.52
2022-12-13T14:49:33.745Z,19.30
2022-12-13T14:52:06.422Z,16.80
2022-12-13T14:54:42.510Z,19.95
2022-12-13T14:57:18.248Z,20.45
2022-12-13T14:59:50.430Z,21.45
2022-12-13T15:02:31.057Z,22.33
2022-12-13T15:05:02.959Z,19.77
2022-12-13T15:07:35.728Z,20.95
2022-12-13T15:10:09.058Z,24.58
2022-12-13T15:12:42.278Z,25.95
2022-12-13T15:15:23.191Z,26.30
2022-12-13T15:18:07.167Z,24.33
2022-12-13T15:20:58.415Z,21.63
2022-12-13T15:23:32.903Z,23.05
2022-12-13T15:26:10.967Z,22.67
2022-12-13T15:28:44.606Z,23.75
2022-12-13T15:31:13.766Z,16.77
2022-12-13T15:33:48.407Z,37.03
2022-12-13T15:36:22.049Z,27.50
2022-12-13T15:41:23.850Z,25.45
2022-12-13T15:43:55.647Z,19.02
2022-12-13T15:46:27.753Z,26.30
2022-12-13T15:48:57.852Z,25.63
2022-12-13T15:51:28.871Z,24.25
2022-12-13T15:54:08.537Z,24.33
2022-12-13T15:56:37.934Z,26.30
2022-12-13T15:59:16.986Z,25.23
2022-12-13T16:01:57.885Z,25.60
2022-12-13T16:05:05.301Z,25.90
2022-12-13T16:07:56.192Z,27.70
2022-12-13T16:10:52.680Z,25.92
2022-12-13T16:13:27.896Z,21.10
2022-12-13T16:15:59.759Z,32.17
2022-12-13T16:18:32.912Z,25.30
2022-12-13T16:21:01.219Z,29.85
2022-12-13T16:23:30.700Z,29.17
2022-12-13T16:25:58.736Z,31.55
2022-12-13T16:28:26.641Z,22.42
2022-12-13T16:31:05.167Z,27.30
2022-12-13T16:33:33.398Z,27.33
2022-12-13T16:36:01.689Z,30.35
2022-12-13T16:38:30.988Z,24.05
2022-12-13T16:41:08.641Z,24.65
2022-12-13T16:43:41.139Z,26.30
2022-12-13T16:47:13.270Z,32.50
2022-12-13T16:49:02.817Z,26.45
2022-12-13T16:51:30.732Z,29.25
2022-12-13T16:53:59.926Z,31.05
2022-12-13T16:56:28.460Z,30.17
2022-12-13T16:58:56.319Z,29.98
2022-12-13T17:01:26.122Z,27.20
2022-12-13T17:03:55.927Z,28.38
2022-12-13T17:06:25.565Z,29.52
2022-12-13T17:08:53.445Z,29.75
2022-12-13T17:11:22.714Z,31.55
2022-12-13T17:13:50.716Z,26.27
2022-12-13T17:16:18.871Z,25.25
2022-12-13T17:18:46.835Z,29.27
2022-12-13T17:21:14.900Z,24.67
2022-12-13T17:23:42.836Z,30.25
2022-12-13T17:26:12.732Z,29.88
2022-12-13T17:28:41.967Z,27.42
2022-12-13T17:31:12.241Z,28.17
2022-12-13T17:33:40.609Z,32.40
2022-12-13T17:36:10.408Z,28.30
2022-12-13T17:38:39.383Z,29.45
2022-12-13T17:41:07.309Z,27.48
2022-12-13T17:43:35.892Z,25.58
2022-12-13T17:46:07.044Z,28.65
2022-12-13T17:48:41.072Z,27.77
2022-12-13T17:51:10.712Z,26.58
2022-12-13T17:53:41.294Z,26.15
2022-12-13T17:56:12.047Z,31.00
2022-12-13T17:58:40.453Z,29.17
2022-12-13T18:01:17.981Z,31.67
2022-12-13T18:03:47.872Z,31.33
2022-12-13T18:06:16.532Z,27.42
2022-12-13T18:08:45.415Z,27.80
2022-12-13T18:11:32.458Z,28.60
2022-12-13T18:14:02.604Z,26.35
2022-12-13T18:16:36.916Z,27.58
2022-12-13T18:19:07.413Z,27.08
2022-12-13T18:21:37.119Z,27.40
2022-12-13T18:24:06.994Z,28.50
2022-12-13T18:26:35.578Z,30.48
2022-12-13T18:29:04.464Z,31.35
2022-12-13T18:31:33.964Z,25.13
2022-12-13T18:34:02.223Z,25.15
2022-12-13T18:36:30.315Z,28.30
2022-12-13T18:38:58.319Z,31.77
2022-12-13T18:41:28.458Z,30.45
2022-12-13T18:43:59.796Z,28.85
2022-12-13T18:46:28.773Z,28.75
2022-12-13T18:48:58.583Z,32.95
2022-12-13T18:51:27.624Z,28.60
2022-12-13T18:53:56.519Z,29.77
2022-12-13T18:56:25.543Z,32.00
2022-12-13T18:58:53.958Z,31.90
2022-12-13T19:01:22.857Z,36.25
2022-12-13T19:03:52.292Z,31.55
2022-12-13T19:06:24.253Z,35.63
2022-12-13T19:08:54.039Z,31.80
2022-12-13T19:11:22.169Z,34.58
2022-12-13T19:13:50.675Z,33.20
2022-12-13T19:16:21.286Z,35.13
2022-12-13T19:18:49.662Z,32.17
2022-12-13T19:21:20.305Z,37.47
2022-12-13T19:23:56.547Z,34.50
2022-12-13T19:26:25.675Z,32.05
2022-12-13T19:28:53.610Z,33.22
2022-12-13T19:31:25.566Z,30.00
2022-12-13T19:33:58.892Z,33.17
2022-12-13T19:36:26.890Z,30.90
2022-12-13T19:38:57.126Z,32.15
2022-12-13T19:41:25.135Z,33.25
2022-12-13T19:43:54.157Z,31.30
2022-12-13T19:46:22.785Z,34.90
2022-12-13T19:48:51.214Z,32.70
2022-12-13T19:51:19.399Z,33.08
2022-12-13T19:53:47.376Z,31.17
2022-12-13T19:56:18.970Z,34.45
2022-12-13T19:58:48.261Z,35.20
2022-12-13T20:01:17.243Z,33.13
2022-12-13T20:03:46.917Z,37.08
2022-12-13T20:06:17.359Z,30.40
2022-12-13T20:08:45.985Z,30.60
2022-12-13T20:11:17.200Z,31.20
2022-12-13T20:13:45.139Z,30.92
2022-12-13T20:16:17.203Z,31.38
2022-12-13T20:18:45.968Z,35.33
2022-12-13T20:21:15.677Z,36.40
2022-12-13T20:23:49.241Z,36.53
2022-12-13T20:26:34.523Z,28.05
2022-12-13T20:29:02.431Z,30.60
2022-12-13T20:31:32.391Z,30.63
2022-12-13T20:34:02.319Z,32.67
2022-12-13T20:36:31.563Z,29.52
2022-12-13T20:39:02.664Z,28.17
2022-12-13T20:41:33.034Z,27.20
2022-12-13T20:44:04.725Z,30.58
2022-12-13T20:46:32.994Z,30.40
2022-12-13T20:49:05.006Z,30.10
2022-12-13T20:51:34.468Z,30.90
2022-12-13T20:54:02.709Z,34.70
2022-12-13T20:56:35.220Z,30.20
2022-12-13T20:59:05.396Z,32.47
2022-12-13T21:01:36.147Z,30.85
2022-12-13T21:04:06.089Z,30.98
2022-12-13T21:06:36.122Z,54.33
2022-12-13T21:09:06.138Z,32.67
2022-12-13T21:11:36.115Z,31.45
2022-12-13T21:14:10.082Z,31.45
2022-12-13T21:16:42.890Z,31.92
2022-12-13T21:19:14.171Z,34.78
2022-12-13T21:21:42.131Z,31.38
2022-12-13T21:24:12.115Z,34.47
2022-12-13T21:26:40.237Z,29.65
2022-12-13T21:29:11.011Z,32.53
2022-12-13T21:31:40.000Z,27.92
2022-12-13T21:34:08.526Z,28.23
2022-12-13T21:36:38.164Z,31.63
2022-12-13T21:39:08.139Z,27.60
2022-12-13T21:41:36.290Z,30.70
2022-12-13T21:44:04.298Z,28.52
2022-12-13T21:47:10.268Z,30.83
2022-12-13T21:49:22.053Z,33.88
2022-12-13T21:51:50.553Z,31.05
2022-12-13T21:54:19.014Z,30.42
2022-12-13T21:57:04.284Z,26.70
2022-12-13T21:59:32.227Z,29.42
2022-12-13T22:02:18.812Z,36.33
2022-12-13T22:04:48.773Z,27.50
2022-12-13T22:07:19.041Z,31.00
2022-12-13T22:09:48.006Z,28.80
2022-12-13T22:12:21.815Z,33.63
2022-12-13T22:14:50.583Z,33.53
2022-12-13T22:17:29.742Z,32.63
2022-12-13T22:20:02.985Z,28.75
2022-12-13T22:22:32.174Z,30.77
2022-12-13T22:25:00.145Z,30.15
2022-12-13T22:27:28.232Z,28.75
2022-12-13T22:29:57.875Z,36.92
2022-12-13T22:32:29.488Z,33.38
2022-12-13T22:34:58.088Z,30.70
2022-12-13T22:37:26.291Z,30.55
2022-12-13T22:39:54.380Z,29.67
2022-12-13T22:42:22.618Z,30.58
2022-12-13T22:44:50.949Z,26.65
2022-12-13T22:47:19.459Z,33.08
2022-12-13T22:49:49.205Z,28.10
2022-12-13T22:52:17.433Z,34.38
2022-12-13T22:54:45.392Z,28.27
2022-12-13T22:57:13.383Z,28.48
2022-12-13T22:59:41.378Z,30.67
2022-12-13T23:02:09.944Z,35.05
2022-12-13T23:04:38.026Z,34.22
2022-12-13T23:07:10.175Z,33.80
2022-12-13T23:09:38.185Z,33.83
2022-12-13T23:12:24.477Z,37.97
2022-12-13T23:14:52.435Z,32.17
2022-12-13T23:17:20.355Z,33.22
2022-12-13T23:19:53.689Z,36.67
2022-12-13T23:22:25.118Z,33.95
2022-12-13T23:24:54.105Z,37.30
2022-12-13T23:27:25.297Z,31.77
2022-12-13T23:29:53.327Z,34.00
2022-12-13T23:32:21.311Z,30.77
2022-12-13T23:34:49.230Z,29.17
2022-12-13T23:37:17.501Z,34.03
2022-12-13T23:39:46.672Z,29.50
2022-12-13T23:42:14.703Z,28.58
2022-12-13T23:44:43.110Z,24.63
2022-12-13T23:47:11.121Z,28.15
2022-12-13T23:49:38.952Z,30.10
2022-12-13T23:52:06.850Z,33.72
2022-12-13T23:54:34.704Z,28.60
2022-12-13T23:57:04.078Z,29.25
2022-12-13T23:59:32.054Z,32.10
